createdAt,value
2019-02-21T00:00:04.496Z,7.37
2019-02-21T00:02:33.527Z,7.32
2019-02-21T00:05:02.560Z,7.26
2019-02-21T00:07:31.833Z,7.16
2019-02-21T00:10:00.854Z,7.11
2019-02-21T00:12:30.848Z,7.06
2019-02-21T00:15:00.319Z,7.02
2019-02-21T00:17:29.824Z,6.98
2019-02-21T00:19:59.472Z,6.98
2019-02-21T00:22:29.148Z,6.95
2019-02-21T00:24:58.256Z,6.93
2019-02-21T00:27:27.319Z,7.13
2019-02-21T00:29:56.334Z,7.21
2019-02-21T00:32:25.372Z,7.11
2019-02-21T00:34:55.275Z,7.05
2019-02-21T00:37:24.774Z,7.00
2019-02-21T00:39:53.842Z,6.88
2019-02-21T00:42:23.132Z,6.90
2019-02-21T00:44:52.150Z,6.89
2019-02-21T00:47:21.913Z,7.07
2019-02-21T00:49:51.568Z,7.15
2019-02-21T00:52:20.958Z,7.06
2019-02-21T00:54:50.290Z,6.99
2019-02-21T00:57:19.318Z,6.97
2019-02-21T00:59:50.743Z,6.95
2019-02-21T01:02:19.161Z,6.88
2019-02-21T01:04:48.554Z,6.87
2019-02-21T01:07:17.662Z,6.83
2019-02-21T01:09:47.006Z,6.82
2019-02-21T01:12:16.173Z,6.82
2019-02-21T01:14:45.505Z,6.80
2019-02-21T01:17:14.563Z,6.76
2019-02-21T01:19:43.578Z,6.66
2019-02-21T01:22:12.964Z,6.65
2019-02-21T01:24:41.986Z,6.65
2019-02-21T01:27:11.397Z,6.64
2019-02-21T01:29:40.776Z,6.60
2019-02-21T01:32:09.820Z,6.56
2019-02-21T01:34:39.228Z,6.52
2019-02-21T01:37:08.582Z,6.43
2019-02-21T01:39:37.644Z,6.47
2019-02-21T01:42:07.022Z,6.62
2019-02-21T01:44:36.087Z,6.69
2019-02-21T01:47:05.172Z,6.69
2019-02-21T01:49:34.230Z,6.75
2019-02-21T01:52:03.572Z,6.80
2019-02-21T01:54:32.567Z,6.72
2019-02-21T01:57:01.656Z,6.62
2019-02-21T01:59:30.699Z,6.56
2019-02-21T02:01:59.749Z,6.47
2019-02-21T02:04:28.821Z,6.38
2019-02-21T02:06:57.849Z,6.31
2019-02-21T02:09:26.838Z,6.21
2019-02-21T02:11:55.932Z,6.14
2019-02-21T02:14:24.978Z,6.04
2019-02-21T02:16:54.027Z,5.95
2019-02-21T02:19:23.000Z,5.94
2019-02-21T02:21:52.386Z,5.77
2019-02-21T02:24:21.386Z,5.62
2019-02-21T02:26:50.400Z,5.65
2019-02-21T02:29:19.449Z,5.83
2019-02-21T02:31:48.878Z,5.78
2019-02-21T02:34:18.316Z,5.71
2019-02-21T02:36:47.379Z,5.65
2019-02-21T02:39:16.599Z,5.49
2019-02-21T02:41:45.631Z,5.37
2019-02-21T02:44:15.402Z,5.35
2019-02-21T02:46:44.698Z,5.27
2019-02-21T02:49:13.725Z,5.27
2019-02-21T02:51:42.759Z,5.37
2019-02-21T02:54:12.134Z,5.52
2019-02-21T02:56:41.185Z,5.62
2019-02-21T02:59:10.238Z,5.71
2019-02-21T03:01:39.331Z,5.78
2019-02-21T03:04:08.687Z,5.79
2019-02-21T03:06:37.734Z,5.84
2019-02-21T03:09:08.693Z,5.82
2019-02-21T03:11:38.071Z,5.77
2019-02-21T03:14:07.083Z,5.73
2019-02-21T03:16:36.927Z,5.62
2019-02-21T03:19:05.970Z,5.55
2019-02-21T03:21:35.031Z,5.48
2019-02-21T03:24:04.045Z,5.43
2019-02-21T03:26:33.460Z,5.39
2019-02-21T03:29:02.474Z,5.36
2019-02-21T03:31:31.481Z,5.39
2019-02-21T03:34:02.400Z,5.35
2019-02-21T03:36:31.435Z,5.35
2019-02-21T03:39:00.765Z,5.42
2019-02-21T03:41:30.353Z,5.38
2019-02-21T03:44:01.092Z,5.38
2019-02-21T03:46:30.145Z,5.35
2019-02-21T03:48:59.486Z,5.23
2019-02-21T03:51:28.499Z,5.06
2019-02-21T03:53:57.519Z,4.89
2019-02-21T03:56:26.870Z,4.76
2019-02-21T03:58:55.894Z,4.69
2019-02-21T04:01:25.311Z,4.68
2019-02-21T04:03:54.326Z,4.68
2019-02-21T04:06:23.884Z,4.66
2019-02-21T04:08:52.871Z,4.74
2019-02-21T04:11:21.908Z,4.81
2019-02-21T04:13:50.984Z,4.68
2019-02-21T04:16:20.689Z,4.67
2019-02-21T04:18:49.727Z,4.58
2019-02-21T04:21:18.797Z,4.47
2019-02-21T04:23:47.807Z,4.56
2019-02-21T04:26:17.175Z,4.67
2019-02-21T04:28:46.238Z,4.59
2019-02-21T04:31:15.239Z,4.51
2019-02-21T04:33:44.266Z,4.52
2019-02-21T04:36:13.639Z,4.43
2019-02-21T04:38:43.089Z,4.39
2019-02-21T04:41:12.439Z,4.27
2019-02-21T04:43:41.456Z,4.32
2019-02-21T04:46:10.505Z,4.30
2019-02-21T04:48:39.513Z,4.23
2019-02-21T04:51:08.525Z,4.24
2019-02-21T04:53:37.850Z,4.23
2019-02-21T04:56:06.881Z,4.22
2019-02-21T04:58:35.920Z,4.23
2019-02-21T05:01:04.970Z,4.29
2019-02-21T05:03:34.335Z,4.23
2019-02-21T05:06:03.463Z,4.12
2019-02-21T05:08:32.484Z,4.17
2019-02-21T05:11:01.838Z,4.23
2019-02-21T05:13:33.616Z,4.18
2019-02-21T05:16:02.287Z,4.16
2019-02-21T05:18:31.326Z,4.26
2019-02-21T05:21:00.307Z,4.21
2019-02-21T05:23:29.341Z,4.17
2019-02-21T05:25:58.737Z,4.22
2019-02-21T05:28:32.042Z,4.26
2019-02-21T05:31:05.601Z,4.31
2019-02-21T05:33:43.623Z,4.37
2019-02-21T05:36:28.233Z,4.48
2019-02-21T05:39:14.032Z,4.59
2019-02-21T05:42:20.664Z,4.64
2019-02-21T05:45:10.994Z,4.64
2019-02-21T05:48:17.964Z,4.49
2019-02-21T05:51:12.122Z,4.40
2019-02-21T05:53:51.617Z,4.36
2019-02-21T05:56:36.147Z,4.23
2019-02-21T05:59:36.859Z,4.23
2019-02-21T06:02:25.037Z,4.24
2019-02-21T06:05:09.751Z,4.22
2019-02-21T06:07:56.362Z,4.16
2019-02-21T06:10:49.475Z,4.08
2019-02-21T06:13:49.418Z,3.99
2019-02-21T06:16:38.108Z,3.85
2019-02-21T06:19:29.260Z,3.83
2019-02-21T06:22:26.446Z,3.72
2019-02-21T06:25:17.733Z,3.75
2019-02-21T06:28:11.699Z,3.77
2019-02-21T06:30:44.789Z,3.75
2019-02-21T06:33:14.232Z,3.83
2019-02-21T06:35:43.337Z,3.94
2019-02-21T06:38:12.763Z,4.05
2019-02-21T06:40:41.846Z,4.00
2019-02-21T06:43:11.207Z,3.98
2019-02-21T06:45:40.261Z,4.07
2019-02-21T06:48:09.257Z,4.14
2019-02-21T06:50:38.585Z,4.11
2019-02-21T06:53:07.611Z,4.24
2019-02-21T06:55:36.642Z,4.17
2019-02-21T06:58:06.248Z,4.22
2019-02-21T07:00:35.263Z,4.35
2019-02-21T07:03:15.105Z,4.44
2019-02-21T07:05:36.900Z,4.40
2019-02-21T07:08:08.672Z,4.41
2019-02-21T07:10:37.257Z,4.43
2019-02-21T07:13:06.567Z,4.46
2019-02-21T07:15:35.974Z,4.54
2019-02-21T07:18:05.041Z,4.62
2019-02-21T07:20:34.069Z,4.65
2019-02-21T07:23:03.084Z,4.76
2019-02-21T07:25:44.531Z,4.81
2019-02-21T07:28:15.922Z,4.86
2019-02-21T07:30:44.489Z,4.93
2019-02-21T07:33:13.562Z,4.94
2019-02-21T07:35:42.905Z,4.99
2019-02-21T07:38:12.296Z,5.04
2019-02-21T07:40:41.315Z,5.10
2019-02-21T07:43:12.751Z,5.09
2019-02-21T07:45:41.093Z,5.24
2019-02-21T07:48:10.401Z,5.29
2019-02-21T07:50:39.429Z,5.31
2019-02-21T07:53:08.879Z,5.39
2019-02-21T07:55:38.237Z,5.47
2019-02-21T07:58:07.272Z,5.47
2019-02-21T08:00:36.285Z,5.65
2019-02-21T08:03:05.711Z,5.75
2019-02-21T08:05:34.753Z,5.94
2019-02-21T08:08:03.763Z,6.08
2019-02-21T08:10:34.106Z,6.23
2019-02-21T08:13:03.248Z,6.34
2019-02-21T08:15:32.266Z,6.39
2019-02-21T08:18:01.317Z,6.41
2019-02-21T08:20:34.051Z,6.72
2019-02-21T08:23:03.053Z,6.81
2019-02-21T08:25:32.574Z,6.94
2019-02-21T08:28:01.928Z,6.97
2019-02-21T08:30:33.040Z,6.94
2019-02-21T08:33:15.484Z,7.08
2019-02-21T08:35:44.486Z,7.28
2019-02-21T08:38:13.513Z,7.28
2019-02-21T08:40:42.818Z,7.42
2019-02-21T08:43:12.357Z,7.57
2019-02-21T08:45:41.706Z,7.62
2019-02-21T08:48:13.385Z,7.87
2019-02-21T08:50:41.827Z,7.89
2019-02-21T08:53:12.933Z,8.11
2019-02-21T08:55:41.591Z,8.37
2019-02-21T08:58:10.989Z,8.49
2019-02-21T09:00:40.040Z,8.69
2019-02-21T09:03:09.064Z,8.98
2019-02-21T09:05:38.086Z,8.94
2019-02-21T09:08:07.464Z,8.80
2019-02-21T09:10:36.769Z,9.38
2019-02-21T09:13:05.839Z,9.60
2019-02-21T09:15:34.871Z,10.13
2019-02-21T09:18:03.905Z,11.69
2019-02-21T09:20:33.563Z,12.29
2019-02-21T09:23:02.573Z,12.01
2019-02-21T09:25:31.583Z,12.02
2019-02-21T09:28:00.962Z,11.29
2019-02-21T09:30:30.355Z,10.52
2019-02-21T09:32:59.754Z,10.52
2019-02-21T09:35:28.825Z,10.36
2019-02-21T09:37:58.769Z,10.86
2019-02-21T09:40:28.649Z,11.42
2019-02-21T09:42:57.894Z,11.89
2019-02-21T09:45:27.274Z,13.09
2019-02-21T09:47:56.677Z,13.61
2019-02-21T09:50:25.724Z,14.39
2019-02-21T09:52:54.744Z,15.05
2019-02-21T09:55:23.785Z,14.23
2019-02-21T09:57:52.814Z,13.86
2019-02-21T10:00:22.213Z,14.10
2019-02-21T10:02:55.767Z,14.14
2019-02-21T10:05:22.318Z,13.89
2019-02-21T10:07:51.757Z,13.60
2019-02-21T10:10:21.109Z,13.04
2019-02-21T10:12:50.117Z,12.20
2019-02-21T10:15:19.159Z,11.87
2019-02-21T10:17:50.753Z,12.16
2019-02-21T10:20:19.816Z,12.34
2019-02-21T10:22:49.146Z,12.51
2019-02-21T10:25:22.923Z,12.74
2019-02-21T10:27:51.559Z,12.73
2019-02-21T10:30:21.314Z,12.80
2019-02-21T10:32:51.013Z,13.62
2019-02-21T10:35:20.024Z,15.42
2019-02-21T10:37:49.459Z,15.99
2019-02-21T10:40:18.482Z,15.51
2019-02-21T10:42:47.947Z,15.99
2019-02-21T10:45:18.233Z,15.23
2019-02-21T10:47:47.305Z,15.82
2019-02-21T10:50:17.875Z,16.25
2019-02-21T10:52:47.214Z,15.40
2019-02-21T10:55:17.656Z,17.52
2019-02-21T10:57:46.717Z,19.28
2019-02-21T11:00:21.322Z,19.07
2019-02-21T11:02:50.385Z,20.91
2019-02-21T11:05:19.499Z,20.69
2019-02-21T11:07:48.519Z,19.55
2019-02-21T11:10:19.647Z,20.06
2019-02-21T11:12:49.038Z,21.22
2019-02-21T11:15:18.475Z,20.44
2019-02-21T11:17:47.551Z,21.59
2019-02-21T11:20:17.168Z,21.84
2019-02-21T11:22:46.200Z,21.83
2019-02-21T11:25:15.599Z,23.87
2019-02-21T11:27:44.769Z,23.76
2019-02-21T11:30:15.964Z,21.65
2019-02-21T11:32:45.003Z,22.37
2019-02-21T11:35:14.665Z,22.57
2019-02-21T11:37:46.831Z,21.87
2019-02-21T11:40:15.349Z,21.31
2019-02-21T11:42:44.964Z,22.75
2019-02-21T11:45:15.685Z,21.83
2019-02-21T11:47:45.074Z,22.38
2019-02-21T11:50:15.664Z,22.32
2019-02-21T11:52:44.710Z,22.69
2019-02-21T11:55:16.794Z,22.67
2019-02-21T11:57:45.877Z,20.91
2019-02-21T12:00:20.329Z,21.75
2019-02-21T12:02:49.367Z,21.46
2019-02-21T12:05:30.231Z,22.29
2019-02-21T12:07:49.560Z,21.99
2019-02-21T12:10:18.681Z,22.63
2019-02-21T12:12:47.691Z,21.65
2019-02-21T12:15:17.193Z,21.79
2019-02-21T12:17:46.569Z,21.97
2019-02-21T12:20:15.722Z,21.75
2019-02-21T12:22:45.090Z,23.41
2019-02-21T12:25:15.265Z,22.41
2019-02-21T12:27:44.334Z,23.89
2019-02-21T12:30:15.576Z,22.97
2019-02-21T12:32:44.602Z,22.82
2019-02-21T12:35:14.236Z,23.53
2019-02-21T12:37:43.553Z,22.22
2019-02-21T12:40:14.922Z,22.56
2019-02-21T12:42:44.680Z,23.25
2019-02-21T12:45:15.487Z,21.93
2019-02-21T12:47:51.002Z,22.62
2019-02-21T12:50:15.837Z,22.75
2019-02-21T12:52:45.269Z,21.64
2019-02-21T12:55:26.516Z,21.49
2019-02-21T12:57:45.661Z,20.30
2019-02-21T13:00:18.979Z,21.21
2019-02-21T13:02:47.944Z,21.82
2019-02-21T13:05:17.063Z,22.15
2019-02-21T13:07:47.058Z,21.78
2019-02-21T13:10:17.605Z,22.58
2019-02-21T13:12:46.986Z,21.12
2019-02-21T13:15:16.793Z,21.39
2019-02-21T13:17:45.831Z,20.46
2019-02-21T13:20:15.455Z,21.72
2019-02-21T13:22:44.456Z,22.07
2019-02-21T13:25:14.017Z,21.48
2019-02-21T13:27:43.051Z,21.68
2019-02-21T13:30:14.113Z,22.16
2019-02-21T13:32:43.127Z,21.94
2019-02-21T13:35:12.296Z,22.88
2019-02-21T13:37:41.378Z,23.15
2019-02-21T13:40:12.096Z,23.34
2019-02-21T13:42:41.184Z,23.27
2019-02-21T13:45:11.006Z,23.30
2019-02-21T13:47:40.408Z,22.63
2019-02-21T13:50:12.370Z,22.37
2019-02-21T13:52:41.717Z,21.49
2019-02-21T13:55:11.148Z,20.63
2019-02-21T13:57:40.571Z,22.10
2019-02-21T14:00:12.600Z,21.69
2019-02-21T14:02:41.880Z,22.45
2019-02-21T14:05:10.939Z,21.74
2019-02-21T14:07:39.960Z,20.83
2019-02-21T14:10:10.177Z,21.67
2019-02-21T14:12:39.206Z,21.88
2019-02-21T14:15:10.489Z,21.00
2019-02-21T14:17:39.551Z,20.28
2019-02-21T14:20:09.349Z,21.58
2019-02-21T14:22:38.774Z,22.38
2019-02-21T14:25:08.554Z,22.68
2019-02-21T14:27:37.895Z,22.40
2019-02-21T14:30:08.328Z,22.39
2019-02-21T14:32:37.358Z,22.34
2019-02-21T14:35:07.243Z,21.09
2019-02-21T14:37:36.570Z,21.86
2019-02-21T14:40:06.393Z,21.23
2019-02-21T14:42:35.402Z,21.43
2019-02-21T14:45:05.166Z,21.15
2019-02-21T14:47:34.197Z,20.95
2019-02-21T14:50:04.691Z,20.80
2019-02-21T14:52:34.220Z,21.20
2019-02-21T14:55:03.227Z,20.68
2019-02-21T14:57:40.462Z,20.74
2019-02-21T15:00:03.077Z,20.64
2019-02-21T15:02:32.382Z,19.95
2019-02-21T15:05:02.171Z,20.09
2019-02-21T15:07:31.461Z,19.90
2019-02-21T15:10:00.556Z,19.81
2019-02-21T15:12:29.959Z,20.29
2019-02-21T15:14:59.279Z,19.92
2019-02-21T15:17:28.313Z,19.40
2019-02-21T15:19:57.372Z,19.61
2019-02-21T15:22:26.418Z,19.61
2019-02-21T15:24:55.422Z,19.43
2019-02-21T15:27:24.457Z,19.29
2019-02-21T15:29:53.539Z,19.39
2019-02-21T15:32:22.565Z,18.93
2019-02-21T15:34:51.611Z,18.49
2019-02-21T15:37:20.653Z,18.45
2019-02-21T15:39:49.672Z,18.31
2019-02-21T15:42:18.679Z,18.53
2019-02-21T15:44:48.079Z,18.64
2019-02-21T15:47:17.086Z,18.56
2019-02-21T15:49:46.154Z,18.43
2019-02-21T15:52:22.165Z,17.95
2019-02-21T15:54:48.414Z,17.79
2019-02-21T15:57:17.458Z,17.74
2019-02-21T15:59:46.493Z,17.77
2019-02-21T16:02:15.512Z,17.72
2019-02-21T16:04:44.566Z,17.74
2019-02-21T16:07:13.625Z,17.66
2019-02-21T16:09:42.646Z,17.61
2019-02-21T16:12:11.959Z,17.61
2019-02-21T16:14:41.169Z,17.46
2019-02-21T16:17:10.536Z,17.35
2019-02-21T16:19:39.575Z,17.15
2019-02-21T16:22:08.550Z,17.22
2019-02-21T16:24:37.976Z,17.11
2019-02-21T16:27:07.198Z,17.08
2019-02-21T16:29:36.202Z,16.91
2019-02-21T16:32:05.240Z,16.80
2019-02-21T16:34:34.274Z,16.71
2019-02-21T16:37:03.634Z,16.53
2019-02-21T16:39:33.028Z,16.39
2019-02-21T16:42:02.119Z,16.28
2019-02-21T16:44:31.160Z,16.18
2019-02-21T16:47:00.498Z,16.05
2019-02-21T16:49:29.544Z,15.85
2019-02-21T16:51:58.640Z,15.68
2019-02-21T16:54:27.684Z,15.45
2019-02-21T16:56:57.103Z,15.41
2019-02-21T16:59:26.231Z,15.25
2019-02-21T17:01:55.286Z,15.05
2019-02-21T17:04:24.430Z,14.99
2019-02-21T17:06:53.524Z,15.07
2019-02-21T17:09:22.567Z,14.81
2019-02-21T17:11:52.397Z,14.66
2019-02-21T17:14:21.789Z,14.67
2019-02-21T17:16:50.797Z,14.65
2019-02-21T17:19:20.230Z,14.48
2019-02-21T17:21:49.238Z,14.52
2019-02-21T17:24:18.292Z,14.39
2019-02-21T17:26:47.416Z,14.19
2019-02-21T17:29:16.750Z,14.27
2019-02-21T17:31:45.845Z,14.08
2019-02-21T17:34:14.884Z,13.99
2019-02-21T17:36:44.380Z,13.80
2019-02-21T17:39:14.103Z,13.68
2019-02-21T17:41:43.749Z,13.68
2019-02-21T17:44:12.878Z,13.47
2019-02-21T17:46:42.952Z,13.46
2019-02-21T17:49:12.521Z,13.49
2019-02-21T17:51:42.337Z,13.39
2019-02-21T17:54:11.399Z,13.31
2019-02-21T17:56:40.481Z,13.26
2019-02-21T17:59:09.591Z,13.26
2019-02-21T18:01:39.633Z,13.07
2019-02-21T18:04:09.358Z,12.93
2019-02-21T18:06:39.016Z,12.90
2019-02-21T18:09:08.437Z,12.95
2019-02-21T18:11:38.034Z,12.92
2019-02-21T18:14:07.083Z,12.90
2019-02-21T18:16:36.643Z,12.86
2019-02-21T18:19:06.435Z,12.82
2019-02-21T18:21:35.979Z,12.72
2019-02-21T18:24:05.008Z,12.56
2019-02-21T18:26:34.115Z,12.81
2019-02-21T18:29:03.197Z,12.75
2019-02-21T18:31:32.250Z,12.69
2019-02-21T18:34:01.527Z,12.36
2019-02-21T18:36:31.121Z,12.36
2019-02-21T18:39:00.363Z,12.02
2019-02-21T18:41:29.517Z,11.78
2019-02-21T18:43:59.008Z,11.66
2019-02-21T18:46:28.690Z,11.56
2019-02-21T18:48:58.251Z,11.50
2019-02-21T18:51:27.627Z,11.75
2019-02-21T18:53:56.644Z,11.78
2019-02-21T18:56:25.856Z,11.62
2019-02-21T18:58:55.104Z,11.48
2019-02-21T19:01:24.787Z,11.34
2019-02-21T19:03:53.795Z,11.69
2019-02-21T19:06:23.327Z,11.69
2019-02-21T19:08:52.514Z,11.70
2019-02-21T19:11:22.152Z,11.55
2019-02-21T19:13:51.668Z,11.32
2019-02-21T19:16:21.064Z,11.09
2019-02-21T19:18:50.779Z,11.08
2019-02-21T19:21:20.815Z,10.89
2019-02-21T19:23:49.904Z,10.76
2019-02-21T19:26:18.915Z,10.79
2019-02-21T19:28:47.978Z,10.72
2019-02-21T19:31:19.354Z,10.54
2019-02-21T19:33:48.399Z,10.38
2019-02-21T19:36:17.877Z,10.32
2019-02-21T19:38:47.326Z,10.15
2019-02-21T19:41:17.477Z,10.08
2019-02-21T19:43:47.448Z,10.05
2019-02-21T19:46:16.543Z,10.06
2019-02-21T19:48:45.964Z,10.03
2019-02-21T19:51:15.135Z,10.15
2019-02-21T19:53:44.297Z,10.17
2019-02-21T19:56:13.743Z,10.28
2019-02-21T19:58:42.773Z,10.29
2019-02-21T20:01:11.878Z,10.29
2019-02-21T20:03:40.942Z,10.24
2019-02-21T20:06:10.017Z,10.26
2019-02-21T20:08:39.094Z,10.31
2019-02-21T20:11:08.295Z,10.39
2019-02-21T20:13:37.373Z,10.35
2019-02-21T20:16:06.475Z,10.54
2019-02-21T20:18:35.892Z,10.63
2019-02-21T20:21:05.309Z,10.76
2019-02-21T20:23:34.843Z,10.90
2019-02-21T20:26:03.899Z,11.07
2019-02-21T20:28:33.334Z,11.09
2019-02-21T20:31:02.586Z,11.12
2019-02-21T20:33:31.947Z,11.14
2019-02-21T20:36:01.327Z,11.10
2019-02-21T20:38:32.286Z,11.03
2019-02-21T20:41:01.598Z,10.96
2019-02-21T20:43:30.676Z,11.04
2019-02-21T20:46:00.098Z,11.08
2019-02-21T20:48:30.566Z,11.13
2019-02-21T20:51:01.698Z,11.15
2019-02-21T20:53:30.943Z,11.22
2019-02-21T20:56:00.030Z,11.18
2019-02-21T20:58:29.075Z,11.19
2019-02-21T21:00:58.797Z,11.05
2019-02-21T21:03:28.005Z,11.05
2019-02-21T21:05:57.707Z,10.91
2019-02-21T21:08:27.254Z,11.02
2019-02-21T21:10:56.347Z,10.69
2019-02-21T21:13:25.351Z,10.81
2019-02-21T21:15:54.500Z,10.85
2019-02-21T21:18:23.755Z,10.61
2019-02-21T21:20:53.400Z,10.60
2019-02-21T21:23:22.477Z,10.76
2019-02-21T21:25:51.652Z,10.66
2019-02-21T21:28:20.765Z,10.56
2019-02-21T21:30:50.208Z,10.50
2019-02-21T21:33:19.346Z,10.42
2019-02-21T21:35:48.401Z,10.61
2019-02-21T21:38:24.037Z,10.74
2019-02-21T21:40:48.245Z,10.73
2019-02-21T21:43:17.319Z,10.79
2019-02-21T21:45:46.827Z,10.59
2019-02-21T21:48:15.881Z,10.52
2019-02-21T21:50:51.370Z,10.74
2019-02-21T21:53:20.501Z,10.77
2019-02-21T21:55:52.345Z,10.86
2019-02-21T21:58:27.331Z,10.68
2019-02-21T22:00:56.411Z,10.69
2019-02-21T22:03:26.149Z,10.57
2019-02-21T22:05:55.201Z,10.41
2019-02-21T22:08:24.281Z,10.55
2019-02-21T22:10:53.399Z,10.39
2019-02-21T22:13:22.746Z,10.44
2019-02-21T22:15:52.146Z,10.35
2019-02-21T22:18:21.273Z,10.35
2019-02-21T22:20:50.310Z,10.34
2019-02-21T22:23:19.375Z,10.55
2019-02-21T22:25:48.413Z,10.32
2019-02-21T22:28:17.478Z,10.29
2019-02-21T22:30:46.499Z,10.30
2019-02-21T22:33:15.889Z,10.18
2019-02-21T22:35:45.269Z,10.12
2019-02-21T22:38:14.464Z,10.29
2019-02-21T22:40:43.543Z,10.15
2019-02-21T22:43:12.567Z,10.19
2019-02-21T22:45:41.609Z,10.13
2019-02-21T22:48:11.291Z,10.01
2019-02-21T22:50:40.382Z,10.06
2019-02-21T22:53:09.454Z,10.05
2019-02-21T22:55:38.499Z,9.80
2019-02-21T22:58:07.578Z,9.59
2019-02-21T23:01:01.660Z,9.70
2019-02-21T23:03:48.361Z,9.79
2019-02-21T23:06:56.379Z,9.85
2019-02-21T23:09:28.279Z,9.82
2019-02-21T23:11:57.522Z,9.72
2019-02-21T23:14:26.516Z,9.69
2019-02-21T23:16:55.596Z,9.79
2019-02-21T23:19:24.973Z,9.74
2019-02-21T23:21:54.030Z,9.66
2019-02-21T23:24:23.382Z,9.62
2019-02-21T23:26:52.804Z,9.56
2019-02-21T23:29:21.839Z,9.45
2019-02-21T23:31:51.225Z,9.55
2019-02-21T23:34:28.110Z,9.36
2019-02-21T23:36:57.227Z,9.19
2019-02-21T23:39:37.530Z,9.12
2019-02-21T23:41:57.391Z,9.08
2019-02-21T23:44:26.773Z,8.85
2019-02-21T23:46:56.157Z,8.81
2019-02-21T23:49:25.189Z,8.72
2019-02-21T23:51:54.616Z,8.64
2019-02-21T23:54:23.954Z,8.54
2019-02-21T23:56:52.967Z,8.61
2019-02-21T23:59:22.311Z,8.48
